Terminal Aerodrome Forecast
Issued by NWS

Home | Current Version | Previous Version | Text Only | Print | Product List | Glossary On
Versions: 1 2 3 4 5 6 7 8 9 10 11 12 13 14 15 16 17 18 19 20 21 22
000
FTUS43 KDLH 221000 AAD
TAFHIB
TAF AMD
KHIB 221010Z 2210/2306 28007KT P6SM VCSH SCT045 BKN070
     FM221600 33021G28KT P6SM BKN040
     FM230000 32008KT P6SM SCT050=

USA.gov is the U.S. government's official web portal to all federal, state and local government web resources and services.